createdAt,value
2017-12-04T00:01:16.802Z,101171.42
2017-12-04T00:03:46.393Z,101180.56
2017-12-04T00:06:15.624Z,101170.40
2017-12-04T00:08:44.070Z,101180.92
2017-12-04T00:11:12.502Z,101188.81
2017-12-04T00:13:41.242Z,101183.08
2017-12-04T00:16:10.407Z,101181.27
2017-12-04T00:18:38.887Z,101182.65
2017-12-04T00:21:07.317Z,101183.70
2017-12-04T00:23:35.947Z,101182.21
2017-12-04T00:26:05.149Z,101174.55
2017-12-04T00:28:33.554Z,101169.29
2017-12-04T00:31:02.066Z,101159.20
2017-12-04T00:33:30.502Z,101162.52
2017-12-04T00:35:59.026Z,101159.56
2017-12-04T00:38:28.975Z,101156.55
2017-12-04T00:40:57.830Z,101140.41
2017-12-04T00:43:26.669Z,101114.28
2017-12-04T00:45:56.769Z,101117.22
2017-12-04T00:48:26.102Z,101108.08
2017-12-04T00:50:54.537Z,101119.81
2017-12-04T00:53:22.962Z,101149.70
2017-12-04T00:55:51.385Z,101163.57
2017-12-04T00:58:19.850Z,101175.48
2017-12-04T01:00:48.317Z,101172.41
2017-12-04T01:03:17.130Z,101178.30
2017-12-04T01:05:45.521Z,101177.03
2017-12-04T01:08:13.854Z,101178.38
2017-12-04T01:10:42.183Z,101180.60
2017-12-04T01:13:10.561Z,101185.27
2017-12-04T01:15:39.723Z,101185.46
2017-12-04T01:18:08.857Z,101200.80
2017-12-04T01:20:37.207Z,101192.06
2017-12-04T01:23:05.569Z,101189.03
2017-12-04T01:25:34.350Z,101185.64
2017-12-04T01:28:02.729Z,101184.91
2017-12-04T01:30:31.072Z,101180.86
2017-12-04T01:33:00.205Z,101187.83
2017-12-04T01:35:28.589Z,101198.51
2017-12-04T01:37:56.920Z,101189.95
2017-12-04T01:40:26.092Z,101191.70
2017-12-04T01:42:54.436Z,101187.83
2017-12-04T01:45:23.196Z,101180.50
2017-12-04T01:47:51.612Z,101178.33
2017-12-04T01:50:19.957Z,101183.54
2017-12-04T01:52:48.348Z,101184.03
2017-12-04T01:55:17.440Z,101187.55
2017-12-04T01:57:45.800Z,101178.33
2017-12-04T02:00:14.234Z,101184.09
2017-12-04T02:02:45.976Z,101179.84
2017-12-04T02:05:14.385Z,101179.31
2017-12-04T02:07:43.220Z,101176.69
2017-12-04T02:10:11.968Z,101174.39
2017-12-04T02:12:41.109Z,101173.06
2017-12-04T02:15:09.488Z,101175.34
2017-12-04T02:17:37.821Z,101172.20
2017-12-04T02:20:06.957Z,101167.25
2017-12-04T02:22:35.312Z,101170.84
2017-12-04T02:25:03.709Z,101165.22
2017-12-04T02:27:32.481Z,101170.53
2017-12-04T02:30:00.839Z,101167.95
2017-12-04T02:32:30.040Z,101173.00
2017-12-04T02:34:59.554Z,101168.44
2017-12-04T02:37:28.013Z,101155.59
2017-12-04T02:39:56.360Z,101156.07
2017-12-04T02:42:24.713Z,101168.30
2017-12-04T02:44:53.141Z,101161.84
2017-12-04T02:47:21.508Z,101168.44
2017-12-04T02:49:49.917Z,101158.53
2017-12-04T02:52:19.024Z,101163.88
2017-12-04T02:54:47.424Z,101156.48
2017-12-04T02:57:15.828Z,101151.33
2017-12-04T02:59:44.179Z,101153.81
2017-12-04T03:02:13.339Z,101158.62
2017-12-04T03:04:42.452Z,101156.75
2017-12-04T03:07:10.884Z,101150.61
2017-12-04T03:09:39.255Z,101149.25
2017-12-04T03:12:07.624Z,101152.80
2017-12-04T03:14:35.979Z,101150.95
2017-12-04T03:17:04.364Z,101149.61
2017-12-04T03:19:33.499Z,101147.30
2017-12-04T03:22:01.916Z,101146.27
2017-12-04T03:24:30.788Z,101146.42
2017-12-04T03:26:59.144Z,101146.84
2017-12-04T03:29:27.586Z,101147.17
2017-12-04T03:31:56.687Z,101143.64
2017-12-04T03:34:25.052Z,101143.57
2017-12-04T03:36:54.175Z,101153.25
2017-12-04T03:39:22.577Z,101143.30
2017-12-04T03:41:51.008Z,101142.15
2017-12-04T03:44:19.415Z,101138.55
2017-12-04T03:46:47.804Z,101130.74
2017-12-04T03:49:16.158Z,101137.73
2017-12-04T03:51:44.500Z,101121.89
2017-12-04T03:54:14.253Z,101122.23
2017-12-04T03:56:42.596Z,101113.03
2017-12-04T03:59:11.363Z,101118.74
2017-12-04T04:01:39.736Z,101111.44
2017-12-04T04:04:08.111Z,101115.78
2017-12-04T04:06:36.523Z,101106.89
2017-12-04T04:09:04.884Z,101111.25
2017-12-04T04:11:33.286Z,101108.59
2017-12-04T04:14:02.412Z,101113.08
2017-12-04T04:16:30.811Z,101107.47
2017-12-04T04:18:59.195Z,101100.15
2017-12-04T04:21:27.576Z,101099.80
2017-12-04T04:23:57.078Z,101089.44
2017-12-04T04:26:25.423Z,101089.44
2017-12-04T04:28:54.635Z,101091.77
2017-12-04T04:31:23.040Z,101098.81
2017-12-04T04:33:52.153Z,101098.39
2017-12-04T04:36:21.283Z,101099.83
2017-12-04T04:38:49.680Z,101093.00
2017-12-04T04:41:18.784Z,101093.02
2017-12-04T04:43:47.161Z,101098.64
2017-12-04T04:46:17.060Z,101090.56
2017-12-04T04:48:45.447Z,101083.45
2017-12-04T04:51:14.960Z,101095.67
2017-12-04T04:53:44.092Z,101084.97
2017-12-04T04:56:12.426Z,101088.30
2017-12-04T04:58:40.763Z,101095.34
2017-12-04T05:01:10.420Z,101079.98
2017-12-04T05:03:39.135Z,101091.44
2017-12-04T05:06:09.025Z,101089.41
2017-12-04T05:08:37.396Z,101089.52
2017-12-04T05:11:06.212Z,101082.59
2017-12-04T05:13:34.629Z,101070.45
2017-12-04T05:16:03.013Z,101067.92
2017-12-04T05:18:31.351Z,101061.43
2017-12-04T05:21:00.155Z,101069.80
2017-12-04T05:23:28.640Z,101091.16
2017-12-04T05:25:57.051Z,101086.83
2017-12-04T05:28:26.191Z,101084.38
2017-12-04T05:30:54.555Z,101088.86
2017-12-04T05:33:23.704Z,101085.05
2017-12-04T05:35:52.828Z,101090.68
2017-12-04T05:38:21.191Z,101092.31
2017-12-04T05:40:49.583Z,101092.48
2017-12-04T05:43:17.942Z,101082.75
2017-12-04T05:45:46.303Z,101091.89
2017-12-04T05:48:15.252Z,101108.66
2017-12-04T05:50:43.599Z,101099.70
2017-12-04T05:53:11.983Z,101095.91
2017-12-04T05:55:40.307Z,101092.41
2017-12-04T05:58:09.447Z,101097.48
2017-12-04T06:00:37.823Z,101102.33
2017-12-04T06:03:06.231Z,101106.69
2017-12-04T06:05:34.606Z,101100.08
2017-12-04T06:08:02.955Z,101107.20
2017-12-04T06:10:31.719Z,101105.14
2017-12-04T06:13:00.079Z,101108.59
2017-12-04T06:15:29.231Z,101098.58
2017-12-04T06:17:58.387Z,101108.70
2017-12-04T06:20:26.775Z,101113.59
2017-12-04T06:22:55.535Z,101116.70
2017-12-04T06:25:24.627Z,101117.17
2017-12-04T06:27:53.761Z,101121.92
2017-12-04T06:30:22.107Z,101124.15
2017-12-04T06:32:50.907Z,101136.47
2017-12-04T06:35:20.006Z,101136.42
2017-12-04T06:37:48.419Z,101133.84
2017-12-04T06:40:17.187Z,101127.32
2017-12-04T06:42:45.567Z,101132.08
2017-12-04T06:45:13.991Z,101128.17
2017-12-04T06:47:42.346Z,101135.16
2017-12-04T06:50:10.716Z,101127.42
2017-12-04T06:52:39.055Z,101133.05
2017-12-04T06:55:07.419Z,101137.08
2017-12-04T06:57:36.526Z,101135.34
2017-12-04T07:00:04.943Z,101131.82
2017-12-04T07:02:33.318Z,101142.27
2017-12-04T07:05:01.702Z,101142.31
2017-12-04T07:07:30.114Z,101137.58
2017-12-04T07:09:59.266Z,101140.20
2017-12-04T07:12:28.030Z,101141.98
2017-12-04T07:14:57.990Z,101142.37
2017-12-04T07:17:26.417Z,101160.35
2017-12-04T07:19:54.827Z,101158.17
2017-12-04T07:22:24.310Z,101164.33
2017-12-04T07:24:52.670Z,101160.83
2017-12-04T07:27:22.262Z,101162.61
2017-12-04T07:29:51.862Z,101163.00
2017-12-04T07:32:20.837Z,101166.57
2017-12-04T07:34:49.570Z,101172.64
2017-12-04T07:37:18.298Z,101172.20
2017-12-04T07:39:46.677Z,101173.11
2017-12-04T07:42:15.018Z,101168.81
2017-12-04T07:44:43.390Z,101181.00
2017-12-04T07:47:12.166Z,101171.39
2017-12-04T07:49:40.522Z,101177.08
2017-12-04T07:52:08.914Z,101177.09
2017-12-04T07:54:38.086Z,101173.60
2017-12-04T07:57:06.486Z,101178.53
2017-12-04T07:59:35.773Z,101183.31
2017-12-04T08:02:05.014Z,101179.84
2017-12-04T08:04:33.482Z,101184.64
2017-12-04T08:07:02.730Z,101177.30
2017-12-04T08:09:32.435Z,101181.70
2017-12-04T08:12:01.330Z,101186.05
2017-12-04T08:14:30.582Z,101192.63
2017-12-04T08:16:59.725Z,101186.18
2017-12-04T08:19:28.607Z,101179.72
2017-12-04T08:21:57.333Z,101182.39
2017-12-04T08:24:26.576Z,101186.33
2017-12-04T08:26:55.162Z,101190.20
2017-12-04T08:29:23.538Z,101192.81
2017-12-04T08:31:53.265Z,101191.97
2017-12-04T08:34:22.490Z,101195.53
2017-12-04T08:36:50.849Z,101197.27
2017-12-04T08:39:19.241Z,101200.42
2017-12-04T08:41:47.659Z,101204.34
2017-12-04T08:44:16.398Z,101214.81
2017-12-04T08:46:44.966Z,101209.97
2017-12-04T08:49:14.694Z,101211.70
2017-12-04T08:51:43.445Z,101219.55
2017-12-04T08:54:12.101Z,101218.28
2017-12-04T08:56:40.469Z,101225.78
2017-12-04T08:59:09.590Z,101221.52
2017-12-04T09:01:37.963Z,101229.84
2017-12-04T09:04:06.413Z,101229.91
2017-12-04T09:06:34.809Z,101234.81
2017-12-04T09:09:03.578Z,101247.16
2017-12-04T09:11:32.059Z,101241.49
2017-12-04T09:14:00.834Z,101245.88
2017-12-04T09:16:29.213Z,101246.68
2017-12-04T09:18:57.561Z,101250.65
2017-12-04T09:21:25.950Z,101247.17
2017-12-04T09:23:54.707Z,101243.99
2017-12-04T09:26:23.104Z,101242.16
2017-12-04T09:28:52.609Z,101240.80
2017-12-04T09:31:21.010Z,101242.12
2017-12-04T09:33:50.157Z,101240.31
2017-12-04T09:36:18.557Z,101239.63
2017-12-04T09:38:46.913Z,101242.98
2017-12-04T09:41:15.306Z,101233.03
2017-12-04T09:43:43.653Z,101231.67
2017-12-04T09:46:12.798Z,101237.23
2017-12-04T09:48:41.165Z,101240.53
2017-12-04T09:51:09.537Z,101247.34
2017-12-04T09:53:37.881Z,101243.20
2017-12-04T09:56:06.967Z,101239.67
2017-12-04T09:58:35.458Z,101242.00
2017-12-04T10:01:04.184Z,101243.63
2017-12-04T10:03:33.733Z,101241.77
2017-12-04T10:06:02.897Z,101249.08
2017-12-04T10:08:31.249Z,101256.16
2017-12-04T10:10:59.645Z,101248.80
2017-12-04T10:13:27.977Z,101253.69
2017-12-04T10:15:56.349Z,101248.12
2017-12-04T10:18:25.085Z,101254.91
2017-12-04T10:20:53.489Z,101253.03
2017-12-04T10:23:21.825Z,101254.33
2017-12-04T10:25:50.957Z,101253.77
2017-12-04T10:28:19.351Z,101259.97
2017-12-04T10:30:47.712Z,101261.89
2017-12-04T10:33:16.937Z,101259.38
2017-12-04T10:35:46.057Z,101254.08
2017-12-04T10:38:15.949Z,101248.48
2017-12-04T10:40:45.112Z,101263.06
2017-12-04T10:43:13.437Z,101256.20
2017-12-04T10:45:43.321Z,101251.82
2017-12-04T10:48:12.049Z,101253.55
2017-12-04T10:50:40.785Z,101262.03
2017-12-04T10:53:09.185Z,101258.16
2017-12-04T10:55:38.292Z,101251.05
2017-12-04T10:58:06.693Z,101254.51
2017-12-04T11:00:35.085Z,101252.34
2017-12-04T11:03:03.444Z,101251.51
2017-12-04T11:05:33.235Z,101218.04
2017-12-04T11:08:01.566Z,101254.59
2017-12-04T11:10:29.940Z,101247.52
2017-12-04T11:12:58.266Z,101250.50
2017-12-04T11:15:27.393Z,101253.56
2017-12-04T11:17:55.857Z,101249.28
2017-12-04T11:20:24.964Z,101242.86
2017-12-04T11:22:53.688Z,101245.64
2017-12-04T11:25:22.812Z,101238.80
2017-12-04T11:27:51.153Z,101238.43
2017-12-04T11:30:19.532Z,101239.36
2017-12-04T11:32:47.876Z,101244.19
2017-12-04T11:35:16.217Z,101235.45
2017-12-04T11:37:44.566Z,101242.08
2017-12-04T11:40:12.910Z,101239.03
2017-12-04T11:42:41.332Z,101235.82
2017-12-04T11:45:09.688Z,101244.92
2017-12-04T11:47:38.013Z,101240.92
2017-12-04T11:50:06.791Z,101238.64
2017-12-04T11:52:35.577Z,101305.52
2017-12-04T11:55:03.904Z,101304.45
2017-12-04T11:57:32.681Z,101312.15
2017-12-04T12:00:01.032Z,101312.25
2017-12-04T12:02:30.504Z,101307.81
2017-12-04T12:04:59.636Z,101308.83
2017-12-04T12:07:28.728Z,101306.77
2017-12-04T12:09:57.073Z,101305.38
2017-12-04T12:12:25.507Z,101305.77
2017-12-04T12:14:54.668Z,101319.55
2017-12-04T12:17:23.017Z,101315.88
2017-12-04T12:19:51.340Z,101304.20
2017-12-04T12:22:22.240Z,101296.84
2017-12-04T12:24:50.587Z,101303.53
2017-12-04T12:27:18.964Z,101302.92
2017-12-04T12:29:48.824Z,101313.92
2017-12-04T12:32:18.039Z,101312.73
2017-12-04T12:34:46.439Z,101325.55
2017-12-04T12:37:15.588Z,101326.76
2017-12-04T12:39:43.977Z,101335.17
2017-12-04T12:42:12.717Z,101336.75
2017-12-04T12:44:42.623Z,101334.50
2017-12-04T12:47:10.988Z,101342.20
2017-12-04T12:49:40.084Z,101343.80
2017-12-04T12:52:08.526Z,101341.89
2017-12-04T12:54:36.948Z,101346.42
2017-12-04T12:57:05.692Z,101347.22
2017-12-04T12:59:34.751Z,101357.20
2017-12-04T13:02:04.249Z,101358.55
2017-12-04T13:04:33.343Z,101358.88
2017-12-04T13:07:01.725Z,101355.16
2017-12-04T13:09:30.064Z,101359.69
2017-12-04T13:11:58.428Z,101359.68
2017-12-04T13:14:26.789Z,101371.40
2017-12-04T13:16:55.888Z,101375.14
2017-12-04T13:19:24.257Z,101380.50
2017-12-04T13:21:54.133Z,101380.47
2017-12-04T13:24:24.000Z,101382.47
2017-12-04T13:26:52.452Z,101379.31
2017-12-04T13:29:21.513Z,101381.12
2017-12-04T13:31:58.579Z,101383.77
2017-12-04T13:34:44.659Z,101378.91
2017-12-04T13:37:21.192Z,101388.50
2017-12-04T13:39:50.915Z,101393.06
2017-12-04T13:42:19.709Z,101394.94
2017-12-04T13:44:48.124Z,101404.66
2017-12-04T13:47:17.664Z,101409.91
2017-12-04T13:49:46.004Z,101417.67
2017-12-04T13:52:15.139Z,101410.55
2017-12-04T13:54:44.639Z,101413.70
2017-12-04T13:57:13.787Z,101416.95
2017-12-04T13:59:42.149Z,101416.61
2017-12-04T14:02:11.655Z,101418.16
2017-12-04T14:04:40.075Z,101417.78
2017-12-04T14:07:08.407Z,101422.39
2017-12-04T14:09:36.764Z,101416.23
2017-12-04T14:12:06.267Z,101421.02
2017-12-04T14:14:34.603Z,101423.89
2017-12-04T14:17:04.479Z,101431.06
2017-12-04T14:19:33.599Z,101433.61
2017-12-04T14:22:02.331Z,101438.99
2017-12-04T14:24:32.044Z,101435.60
2017-12-04T14:27:00.419Z,101438.94
2017-12-04T14:29:28.742Z,101446.79
2017-12-04T14:31:57.103Z,101449.68
2017-12-04T14:34:25.425Z,101462.41
2017-12-04T14:36:54.567Z,101465.44
2017-12-04T14:39:22.911Z,101468.31
2017-12-04T14:41:51.659Z,101468.96
2017-12-04T14:44:20.015Z,101476.64
2017-12-04T14:46:48.358Z,101481.15
2017-12-04T14:49:16.727Z,101485.94
2017-12-04T14:51:45.063Z,101487.66
2017-12-04T14:54:14.608Z,101499.95
2017-12-04T14:56:42.955Z,101509.40
2017-12-04T14:59:12.104Z,101517.58
2017-12-04T15:01:40.511Z,101509.63
2017-12-04T15:04:09.618Z,101514.43
2017-12-04T15:06:39.538Z,101521.66
2017-12-04T15:09:07.995Z,101527.16
2017-12-04T15:11:36.354Z,101534.34
2017-12-04T15:14:04.754Z,101537.14
2017-12-04T15:16:33.158Z,101545.79
2017-12-04T15:19:05.375Z,101546.05
2017-12-04T15:21:33.802Z,101551.33
2017-12-04T15:24:03.274Z,101559.92
2017-12-04T15:26:32.695Z,101557.05
2017-12-04T15:29:01.059Z,101564.82
2017-12-04T15:31:29.658Z,101566.89
2017-12-04T15:33:59.246Z,101570.78
2017-12-04T15:36:27.998Z,101579.57
2017-12-04T15:38:56.563Z,101583.41
2017-12-04T15:41:26.272Z,101587.27
2017-12-04T15:43:55.426Z,101594.42
2017-12-04T15:46:24.219Z,101597.67
2017-12-04T15:48:52.990Z,101604.18
2017-12-04T15:51:21.370Z,101597.95
2017-12-04T15:53:49.752Z,101608.69
2017-12-04T15:56:18.149Z,101608.42
2017-12-04T15:58:48.042Z,101608.22
2017-12-04T16:01:17.770Z,101613.98
2017-12-04T16:03:46.170Z,101610.98
2017-12-04T16:06:15.903Z,101615.60
2017-12-04T16:08:44.754Z,101620.58
2017-12-04T16:11:13.925Z,101618.38
2017-12-04T16:13:42.426Z,101627.80
2017-12-04T16:16:11.163Z,101632.56
2017-12-04T16:18:40.386Z,101633.27
2017-12-04T16:21:08.806Z,101634.70
2017-12-04T16:23:38.334Z,101642.21
2017-12-04T16:26:06.714Z,101644.23
2017-12-04T16:28:35.118Z,101655.14
2017-12-04T16:31:03.890Z,101658.28
2017-12-04T16:33:32.622Z,101656.25
2017-12-04T16:36:01.080Z,101657.24
2017-12-04T16:38:29.534Z,101664.59
2017-12-04T16:40:59.298Z,101665.83
2017-12-04T16:43:29.397Z,101670.78
2017-12-04T16:45:57.946Z,101674.09
2017-12-04T16:48:27.582Z,101677.38
2017-12-04T16:50:56.430Z,101676.05
2017-12-04T16:53:27.101Z,101681.19
2017-12-04T16:56:08.094Z,101684.69
2017-12-04T16:58:38.739Z,101690.23
2017-12-04T17:01:11.018Z,101685.44
2017-12-04T17:03:39.762Z,101693.98
2017-12-04T17:06:08.283Z,101699.61
2017-12-04T17:08:38.690Z,101704.46
2017-12-04T17:11:09.225Z,101705.77
2017-12-04T17:13:38.917Z,101707.44
2017-12-04T17:16:29.445Z,101707.63
2017-12-04T17:18:59.608Z,101712.81
2017-12-04T17:21:28.077Z,101718.89
2017-12-04T17:23:56.441Z,101726.66
2017-12-04T17:26:25.233Z,101728.83
2017-12-04T17:28:53.582Z,101732.09
2017-12-04T17:31:23.074Z,101740.77
2017-12-04T17:33:51.450Z,101734.40
2017-12-04T17:36:19.853Z,101740.79
2017-12-04T17:38:48.625Z,101738.06
2017-12-04T17:41:16.986Z,101748.95
2017-12-04T17:43:45.389Z,101756.66
2017-12-04T17:46:13.805Z,101751.10
2017-12-04T17:48:42.238Z,101757.58
2017-12-04T17:51:10.597Z,101757.69
2017-12-04T17:53:40.229Z,101762.83
2017-12-04T17:56:08.720Z,101772.37
2017-12-04T17:58:37.857Z,101779.13
2017-12-04T18:01:07.782Z,101781.48
2017-12-04T18:03:36.161Z,101787.19
2017-12-04T18:06:04.545Z,101789.64
2017-12-04T18:08:32.921Z,101791.81
2017-12-04T18:11:01.703Z,101796.81
2017-12-04T18:13:30.127Z,101803.02
2017-12-04T18:15:59.074Z,101806.50
2017-12-04T18:18:27.492Z,101806.58
2017-12-04T18:20:56.005Z,101802.79
2017-12-04T18:23:24.352Z,101807.05
2017-12-04T18:25:52.747Z,101810.21
2017-12-04T18:28:21.865Z,101803.83
2017-12-04T18:30:50.265Z,101806.68
2017-12-04T18:33:18.628Z,101807.88
2017-12-04T18:35:47.849Z,101814.78
2017-12-04T18:38:17.605Z,101805.21
2017-12-04T18:40:47.092Z,101806.32
2017-12-04T18:43:15.437Z,101809.79
2017-12-04T18:45:44.659Z,101816.43
2017-12-04T18:48:13.445Z,101819.84
2017-12-04T18:50:41.800Z,101816.54
2017-12-04T18:53:10.177Z,101811.61
2017-12-04T18:55:38.550Z,101822.67
2017-12-04T18:58:06.925Z,101820.12
2017-12-04T19:00:36.793Z,101815.59
2017-12-04T19:03:05.142Z,101817.59
2017-12-04T19:05:33.907Z,101822.16
2017-12-04T19:08:06.270Z,101823.31
2017-12-04T19:10:34.630Z,101819.01
2017-12-04T19:13:04.629Z,101824.53
2017-12-04T19:15:34.353Z,101824.20
2017-12-04T19:18:02.761Z,101825.41
2017-12-04T19:20:31.921Z,101829.89
2017-12-04T19:23:01.089Z,101826.25
2017-12-04T19:25:30.197Z,101827.73
2017-12-04T19:27:58.598Z,101834.56
2017-12-04T19:30:28.304Z,101831.45
2017-12-04T19:32:57.419Z,101838.59
2017-12-04T19:35:26.405Z,101833.56
2017-12-04T19:37:54.796Z,101836.78
2017-12-04T19:40:23.532Z,101843.45
2017-12-04T19:42:51.916Z,101844.77
2017-12-04T19:45:21.125Z,101847.25
2017-12-04T19:47:51.488Z,101845.30
2017-12-04T19:50:21.580Z,101852.77
2017-12-04T19:52:50.840Z,101846.77
2017-12-04T19:55:20.029Z,101850.44
2017-12-04T19:57:48.827Z,101847.19
2017-12-04T20:00:23.638Z,101849.90
2017-12-04T20:02:52.349Z,101848.84
2017-12-04T20:05:21.497Z,101854.02
2017-12-04T20:07:52.340Z,101861.24
2017-12-04T20:10:22.533Z,101861.96
2017-12-04T20:13:05.272Z,101865.85
2017-12-04T20:15:34.324Z,101856.06
2017-12-04T20:18:04.289Z,101861.89
2017-12-04T20:23:10.616Z,101862.60
2017-12-04T20:25:40.425Z,101864.16
2017-12-04T20:28:10.328Z,101865.94
2017-12-04T20:30:38.758Z,101870.77
2017-12-04T20:33:07.099Z,101877.31
2017-12-04T20:35:36.740Z,101876.45
2017-12-04T20:38:07.696Z,101878.09
2017-12-04T20:40:36.901Z,101875.73
2017-12-04T20:43:05.693Z,101880.83
2017-12-04T20:45:34.527Z,101877.18
2017-12-04T20:48:07.290Z,101881.19
2017-12-04T20:50:37.842Z,101880.55
2017-12-04T20:53:07.065Z,101890.05
2017-12-04T20:55:36.331Z,101885.41
2017-12-04T20:58:05.487Z,101890.56
2017-12-04T21:00:34.414Z,101899.84
2017-12-04T21:03:04.148Z,101903.59
2017-12-04T21:05:33.321Z,101904.89
2017-12-04T21:08:01.720Z,101902.74
2017-12-04T21:10:48.587Z,101904.98
2017-12-04T21:13:34.852Z,101913.32
2017-12-04T21:16:27.227Z,101915.78
2017-12-04T21:18:55.870Z,101908.59
2017-12-04T21:21:33.897Z,101909.66
2017-12-04T21:24:03.671Z,101914.21
2017-12-04T21:26:32.092Z,101915.20
2017-12-04T21:29:00.488Z,101914.94
2017-12-04T21:31:28.831Z,101919.11
2017-12-04T21:33:57.220Z,101917.37
2017-12-04T21:36:25.604Z,101919.73
2017-12-04T21:38:54.040Z,101921.78
2017-12-04T21:41:24.171Z,101924.15
2017-12-04T21:43:54.103Z,101928.47
2017-12-04T21:46:22.659Z,101934.67
2017-12-04T21:48:51.115Z,101929.48
2017-12-04T21:51:20.344Z,101938.30
2017-12-04T21:53:48.739Z,101935.89
2017-12-04T21:56:17.083Z,101942.91
2017-12-04T21:58:46.639Z,101946.44
2017-12-04T22:01:15.005Z,101940.83
2017-12-04T22:03:43.763Z,101943.84
2017-12-04T22:06:12.912Z,101943.36
2017-12-04T22:08:41.291Z,101948.39
2017-12-04T22:11:09.699Z,101949.14
2017-12-04T22:13:38.843Z,101949.57
2017-12-04T22:16:08.015Z,101951.51
2017-12-04T22:18:36.415Z,101953.99
2017-12-04T22:21:04.783Z,101957.44
2017-12-04T22:23:33.211Z,101955.70
2017-12-04T22:26:02.675Z,101955.86
2017-12-04T22:28:31.022Z,101952.41
2017-12-04T22:30:59.775Z,101959.58
2017-12-04T22:33:28.235Z,101960.62
2017-12-04T22:35:56.591Z,101962.36
2017-12-04T22:38:25.758Z,101963.56
2017-12-04T22:40:54.875Z,101964.88
2017-12-04T22:43:23.276Z,101957.28
2017-12-04T22:45:52.548Z,101958.49
2017-12-04T22:48:20.896Z,101958.12
2017-12-04T22:50:49.267Z,101960.25
2017-12-04T22:53:17.705Z,101960.07
2017-12-04T22:55:46.543Z,101957.52
2017-12-04T22:58:14.978Z,101960.70
2017-12-04T23:00:43.318Z,101963.02
2017-12-04T23:03:11.723Z,101957.72
2017-12-04T23:05:40.130Z,101965.73
2017-12-04T23:08:08.563Z,101965.87
2017-12-04T23:10:36.946Z,101962.95
2017-12-04T23:13:05.310Z,101964.12
2017-12-04T23:15:34.031Z,101958.34
2017-12-04T23:18:02.922Z,101973.31
2017-12-04T23:20:31.239Z,101968.58
2017-12-04T23:23:00.706Z,101977.48
2017-12-04T23:25:29.122Z,101975.10
2017-12-04T23:27:57.470Z,101973.63
2017-12-04T23:30:25.852Z,101971.38
2017-12-04T23:32:54.242Z,101975.98
2017-12-04T23:35:22.604Z,101970.91
2017-12-04T23:37:50.975Z,101967.06
2017-12-04T23:40:19.610Z,101970.28
2017-12-04T23:42:49.472Z,101969.90
2017-12-04T23:45:18.050Z,101970.31
2017-12-04T23:47:47.809Z,101978.53
2017-12-04T23:50:16.146Z,101976.63
2017-12-04T23:52:44.518Z,101974.84
2017-12-04T23:55:12.857Z,101981.88
2017-12-04T23:57:41.603Z,101975.70
